Time;durP1;ratioP1;P1;durP2;ratioP2;P2;SDS_P1;SDS_P2;PMS_P1;PMS_P2;Temp;Humidity;BMP_temperature;BMP_pressure;BME280_temperature;BME280_humidity;BME280_pressure;Samples;Min_cycle;Max_cycle;Signal;HPM_P1;HPM_P2
2024/03/02 00:01:36;;;;;;;3.30;3.00;;;;;;;13.66;62.54;99261.03;4475654;31;33016;-82
2024/03/02 00:04:06;;;;;;;2.78;2.45;;;;;;;13.74;62.00;99264.06;4466246;31;33436;-83
2024/03/02 00:06:34;;;;;;;3.35;2.53;;;;;;;13.70;61.92;99262.53;4476291;31;33505;-83
2024/03/02 00:09:02;;;;;;;3.17;2.97;;;;;;;13.63;62.11;99255.94;4479437;31;32306;-83
2024/03/02 00:11:34;;;;;;;8.52;3.53;;;;;;;13.55;62.50;99254.63;4478458;31;33492;-83
2024/03/02 00:14:02;;;;;;;3.90;3.50;;;;;;;13.39;62.91;99261.87;4478840;31;33091;-83
2024/03/02 00:16:31;;;;;;;2.80;2.60;;;;;;;13.34;63.05;99253.37;4476533;31;32915;-83
2024/03/02 00:19:05;;;;;;;2.05;1.95;;;;;;;13.33;63.13;99244.53;4474264;31;33389;-84
2024/03/02 00:21:33;;;;;;;7.03;2.83;;;;;;;13.45;62.40;99240.25;4485809;31;33560;-84
2024/03/02 00:24:07;;;;;;;4.87;3.87;;;;;;;13.31;63.19;99245.59;4475420;31;33435;-84
2024/03/02 00:26:35;;;;;;;3.53;2.80;;;;;;;13.17;63.30;99242.94;4475834;31;34117;-83
2024/03/02 00:29:03;;;;;;;3.58;3.28;;;;;;;13.06;63.27;99241.81;4476122;31;32841;-83
2024/03/02 00:31:31;;;;;;;9.88;2.37;;;;;;;13.38;62.31;99236.28;4492409;31;33873;-83
2024/03/02 00:34:03;;;;;;;8.95;4.78;;;;;;;13.27;62.29;99241.44;4467044;31;32741;-83
2024/03/02 00:36:31;;;;;;;4.10;2.62;;;;;;;13.07;62.57;99232.91;4471401;31;33594;-83
2024/03/02 00:38:58;;;;;;;1.70;1.30;;;;;;;13.53;61.08;99239.75;4480147;31;32109;-83
2024/03/02 00:41:31;;;;;;;1.27;1.17;;;;;;;13.43;61.31;99234.19;4482018;31;32104;-84
2024/03/02 00:44:03;;;;;;;3.35;2.78;;;;;;;13.48;61.05;99242.72;4491904;31;33615;-82
2024/03/02 00:46:43;;;;;;;2.70;2.50;;;;;;;13.25;61.40;99241.53;4476698;31;33854;-82
2024/03/02 00:49:21;;;;;;;3.80;3.28;;;;;;;13.54;60.33;99247.63;4466329;31;32751;-82
2024/03/02 00:51:53;;;;;;;2.08;1.98;;;;;;;13.47;60.04;99238.34;4477058;31;33434;-83
2024/03/02 00:54:26;;;;;;;4.50;4.10;;;;;;;13.34;60.43;99240.09;4479327;31;32904;-82
2024/03/02 00:56:55;;;;;;;2.50;2.05;;;;;;;13.49;59.75;99241.78;4487409;31;33973;-80
2024/03/02 00:59:24;;;;;;;18.27;2.47;;;;;;;13.07;61.00;99242.66;4476238;31;33577;-80
2024/03/02 01:01:52;;;;;;;8.95;4.80;;;;;;;12.97;60.92;99245.03;4489348;31;33162;-80
2024/03/02 01:04:20;;;;;;;4.60;2.53;;;;;;;13.19;60.41;99248.97;4490961;31;34656;-80
2024/03/02 01:06:48;;;;;;;1.65;1.45;;;;;;;13.15;60.25;99248.34;4478405;31;33775;-79
2024/03/02 01:09:17;;;;;;;8.43;3.30;;;;;;;13.08;60.56;99239.91;4478176;31;34170;-80
2024/03/02 01:11:46;;;;;;;3.45;3.10;;;;;;;12.92;60.91;99235.69;4477771;31;33870;-80
2024/03/02 01:14:14;;;;;;;2.62;2.17;;;;;;;12.92;60.68;99252.44;4488715;31;33579;-80
2024/03/02 01:16:42;;;;;;;1.87;1.77;;;;;;;12.98;60.63;99246.75;4491911;31;34046;-80
2024/03/02 01:19:10;;;;;;;1.50;1.40;;;;;;;12.76;61.39;99243.72;4490362;31;33994;-81
2024/03/02 01:21:38;;;;;;;4.55;3.33;;;;;;;12.65;61.71;99244.38;4478925;31;33379;-81
2024/03/02 01:24:05;;;;;;;2.50;2.15;;;;;;;12.83;61.08;99242.41;4479345;31;33179;-80
2024/03/02 01:26:33;;;;;;;2.85;1.42;;;;;;;12.71;60.99;99227.25;4478171;31;33832;-81
2024/03/02 01:29:01;;;;;;;6.50;4.30;;;;;;;12.51;61.28;99221.38;4478294;31;34158;-81
2024/03/02 01:31:29;;;;;;;2.08;1.98;;;;;;;12.59;61.22;99222.72;4490445;31;33492;-80
2024/03/02 01:33:57;;;;;;;3.65;2.53;;;;;;;12.63;61.21;99221.56;4476944;31;33842;-81
2024/03/02 01:36:25;;;;;;;5.93;4.05;;;;;;;12.74;60.51;99219.97;4477297;31;33400;-81
2024/03/02 01:38:54;;;;;;;3.10;2.80;;;;;;;12.69;60.85;99213.25;4486363;31;34634;-81
2024/03/02 01:41:22;;;;;;;1.98;1.87;;;;;;;12.51;61.63;99215.22;4491101;31;33420;-81
2024/03/02 01:43:49;;;;;;;3.37;2.33;;;;;;;12.91;60.12;99205.66;4490623;31;33815;-82
2024/03/02 01:46:17;;;;;;;3.50;1.40;;;;;;;12.91;nan;99200.34;4479036;31;33902;-81
2024/03/02 01:48:45;;;;;;;3.90;2.10;;;;;;;12.67;60.80;99201.88;4478658;31;34558;-81
2024/03/02 01:51:12;;;;;;;2.28;1.52;;;;;;;12.54;60.93;99197.38;4478084;31;32996;-81
2024/03/02 01:53:40;;;;;;;2.72;1.62;;;;;;;12.59;60.90;99204.19;4493591;31;34344;-81
2024/03/02 01:56:08;;;;;;;6.87;2.83;;;;;;;12.72;60.61;99198.03;4494207;31;34869;-81
2024/03/02 01:58:36;;;;;;;3.92;3.60;;;;;;;12.82;60.31;99204.47;4489628;31;34253;-81
2024/03/02 02:01:03;;;;;;;2.55;1.37;;;;;;;12.77;60.59;99208.31;4477107;31;33971;-81
2024/03/02 02:03:31;;;;;;;2.80;2.65;;;;;;;12.72;60.58;99210.41;4478996;31;33833;-80
2024/03/02 02:05:59;;;;;;;1.77;1.67;;;;;;;13.07;59.41;99201.09;4464181;31;32885;-81
2024/03/02 02:08:27;;;;;;;2.15;1.85;;;;;;;12.93;59.71;99209.06;4478205;31;34111;-81
2024/03/02 02:10:55;;;;;;;3.67;2.53;;;;;;;12.80;60.30;99208.97;4462935;31;33251;-82
2024/03/02 02:13:23;;;;;;;1.70;1.60;;;;;;;12.88;60.04;99212.97;4490531;31;33875;-83
2024/03/02 02:15:52;;;;;;;6.70;2.70;;;;;;;12.96;59.91;99229.22;4475131;31;33435;-82
2024/03/02 02:18:21;;;;;;;4.53;2.40;;;;;;;13.04;59.22;99233.09;4489675;31;32411;-82
2024/03/02 02:20:49;;;;;;;3.72;3.28;;;;;;;13.04;58.98;99243.69;4478696;31;32902;-82
2024/03/02 02:23:18;;;;;;;4.50;1.67;;;;;;;12.79;59.84;99240.88;4491614;31;34927;-82
2024/03/02 02:25:47;;;;;;;6.75;3.37;;;;;;;12.66;59.99;99243.41;4478350;31;33181;-82
2024/03/02 02:28:14;;;;;;;4.80;3.25;;;;;;;12.98;58.90;99244.09;4489947;31;33937;-82
2024/03/02 02:30:42;;;;;;;2.05;1.95;;;;;;;12.82;59.55;99248.66;4471238;31;33454;-82
2024/03/02 02:33:10;;;;;;;3.97;2.75;;;;;;;13.00;59.00;99242.19;4491741;31;33121;-82
2024/03/02 02:35:38;;;;;;;1.40;1.12;;;;;;;13.08;58.77;99245.22;4475724;31;33932;-82
2024/03/02 02:38:06;;;;;;;2.80;2.22;;;;;;;13.13;58.38;99244.06;4466376;31;33999;-82
2024/03/02 02:40:34;;;;;;;0.80;0.80;;;;;;;12.77;60.00;99250.69;4488841;31;33173;-82
2024/03/02 02:43:02;;;;;;;3.78;2.95;;;;;;;13.17;58.26;99246.44;4463446;31;33205;-81
2024/03/02 02:45:30;;;;;;;4.90;2.00;;;;;;;13.22;57.96;99235.56;4473404;31;33825;-81
2024/03/02 02:47:58;;;;;;;1.30;1.15;;;;;;;13.09;58.44;99246.06;4480313;31;35126;-81
2024/03/02 02:50:26;;;;;;;3.72;3.42;;;;;;;13.06;58.56;99241.81;4488447;31;34006;-81
2024/03/02 02:52:54;;;;;;;4.32;2.53;;;;;;;13.20;58.20;99233.00;4460920;31;33362;-81
2024/03/02 02:55:22;;;;;;;1.08;1.08;;;;;;;13.23;57.86;99234.62;4487180;31;34792;-80
2024/03/02 02:57:49;;;;;;;9.65;3.05;;;;;;;13.29;57.60;99228.91;4478970;31;32507;-80
2024/03/02 03:00:19;;;;;;;2.90;2.70;;;;;;;13.00;58.72;99226.28;4491338;31;34120;-80
2024/03/02 03:02:49;;;;;;;1.75;1.58;;;;;;;13.22;57.96;99225.81;4480295;31;34024;-81
2024/03/02 03:05:18;;;;;;;10.10;2.05;;;;;;;13.56;56.71;99229.78;4490196;31;34012;-81
2024/03/02 03:07:48;;;;;;;5.53;3.62;;;;;;;13.31;57.08;99227.88;4472656;31;32896;-80
2024/03/02 03:10:17;;;;;;;3.33;2.15;;;;;;;13.21;57.56;99239.16;4477897;31;32310;-80
2024/03/02 03:12:44;;;;;;;9.13;2.47;;;;;;;13.19;57.79;99233.06;4465427;31;33133;-80
2024/03/02 03:15:12;;;;;;;1.75;1.45;;;;;;;13.08;57.80;99239.91;4477559;31;32939;-81
2024/03/02 03:17:41;;;;;;;1.40;1.35;;;;;;;13.14;57.96;99240.47;4472167;31;34401;-83
2024/03/02 03:20:15;;;;;;;2.20;2.10;;;;;;;13.13;58.14;99241.44;4478006;31;33291;-82
2024/03/02 03:22:44;;;;;;;3.62;2.35;;;;;;;13.24;57.83;99228.38;4491226;31;33683;-83
2024/03/02 03:25:12;;;;;;;0.85;0.65;;;;;;;13.07;58.09;99250.62;4491004;31;34680;-82
2024/03/02 03:27:40;;;;;;;3.03;2.28;;;;;;;12.75;58.96;99242.84;4492640;31;33951;-82
2024/03/02 03:30:08;;;;;;;1.60;1.40;;;;;;;12.92;58.67;99240.97;4463858;31;32375;-82
2024/03/02 03:32:35;;;;;;;1.37;1.30;;;;;;;13.20;57.57;99246.25;4480508;31;33246;-82
2024/03/02 03:35:04;;;;;;;1.20;1.15;;;;;;;13.16;57.82;99246.53;4470178;31;33375;-83
2024/03/02 03:37:32;;;;;;;1.55;1.45;;;;;;;13.21;57.45;99249.75;4469715;31;33534;-83
2024/03/02 03:40:02;;;;;;;3.20;2.58;;;;;;;12.82;58.94;99246.00;4478644;31;33331;-81
2024/03/02 03:42:30;;;;;;;3.37;2.55;;;;;;;12.97;58.65;99244.19;4493266;31;34211;-82
2024/03/02 03:44:58;;;;;;;2.75;2.55;;;;;;;13.01;58.66;99238.59;4476385;31;33944;-82
2024/03/02 03:47:26;;;;;;;9.52;3.30;;;;;;;13.47;56.79;99233.03;4475976;31;33348;-82
2024/03/02 03:49:55;;;;;;;2.80;2.55;;;;;;;13.18;57.43;99241.97;4479665;31;33438;-82
2024/03/02 03:52:23;;;;;;;4.37;2.58;;;;;;;13.17;57.74;99249.09;4491259;31;32697;-82
2024/03/02 03:54:51;;;;;;;4.50;3.05;;;;;;;13.24;57.85;99249.56;4481088;31;33913;-83
2024/03/02 03:57:19;;;;;;;3.72;2.85;;;;;;;13.05;58.30;99256.03;4480613;31;32660;-82
2024/03/02 03:59:47;;;;;;;3.33;2.67;;;;;;;13.22;57.95;99254.13;4493583;31;34132;-82
2024/03/02 04:02:15;;;;;;;3.42;3.05;;;;;;;13.03;58.19;99254.41;4490975;31;34399;-82
2024/03/02 04:04:43;;;;;;;5.15;3.10;;;;;;;13.25;58.05;99253.94;4481258;31;34054;-82
2024/03/02 04:07:11;;;;;;;2.53;2.20;;;;;;;13.01;58.79;99257.16;4479292;31;32890;-81
2024/03/02 04:09:39;;;;;;;1.73;1.58;;;;;;;13.02;58.62;99258.00;4478081;31;33549;-83
2024/03/02 04:12:06;;;;;;;4.05;2.70;;;;;;;12.85;59.30;99264.34;4474858;31;32282;-84
2024/03/02 04:14:34;;;;;;;3.08;1.70;;;;;;;12.68;59.88;99267.19;4477650;31;33012;-82
2024/03/02 04:17:02;;;;;;;4.43;3.00;;;;;;;12.15;61.69;99274.69;4489695;31;32961;-82
2024/03/02 04:19:30;;;;;;;4.68;2.58;;;;;;;12.26;61.58;99272.31;4487022;31;32699;-83
2024/03/02 04:21:58;;;;;;;5.53;3.10;;;;;;;12.48;60.92;99269.22;4490559;31;36785;-83
2024/03/02 04:24:32;;;;;;;2.45;2.25;;;;;;;12.64;60.57;99276.25;4481993;31;32826;-83
2024/03/02 04:26:59;;;;;;;2.65;2.40;;;;;;;12.30;61.55;99273.81;4492580;31;33079;-83
2024/03/02 04:29:27;;;;;;;3.35;3.00;;;;;;;12.37;61.27;99276.94;4476565;31;33584;-83
2024/03/02 04:31:55;;;;;;;3.72;3.45;;;;;;;12.41;61.54;99275.84;4477259;31;33836;-84
2024/03/02 04:34:23;;;;;;;12.75;3.33;;;;;;;12.40;61.80;99273.28;4474792;31;33512;-83
2024/03/02 04:36:50;;;;;;;7.55;3.80;;;;;;;12.59;61.01;99280.97;4477529;31;32956;-83
2024/03/02 04:39:19;;;;;;;4.20;1.33;;;;;;;12.41;61.89;99275.84;4468304;31;32349;-84
2024/03/02 04:41:46;;;;;;;6.93;4.82;;;;;;;12.38;62.00;99276.00;4479064;31;32609;-83
2024/03/02 04:44:14;;;;;;;4.47;2.42;;;;;;;12.24;62.84;99289.19;4493209;31;34025;-83
2024/03/02 04:46:42;;;;;;;12.35;4.30;;;;;;;12.31;62.95;99277.31;4491011;31;32615;-83
2024/03/02 04:49:09;;;;;;;2.62;2.42;;;;;;;12.28;63.04;99285.44;4477839;31;32582;-84
2024/03/02 04:51:38;;;;;;;3.35;2.20;;;;;;;12.18;63.66;99290.41;4478684;31;33459;-84
2024/03/02 04:54:06;;;;;;;3.42;3.15;;;;;;;12.18;63.73;99290.41;4480054;31;34512;-83
2024/03/02 04:56:49;;;;;;;4.07;3.60;;;;;;;12.03;64.34;99291.31;4477682;31;34118;-84
2024/03/02 04:59:18;;;;;;;1.65;1.55;;;;;;;12.33;63.20;99288.66;4462978;31;33924;-84
2024/03/02 05:01:47;;;;;;;4.75;2.40;;;;;;;12.21;64.01;99294.69;4493116;31;33564;-84
2024/03/02 05:04:15;;;;;;;0.85;0.85;;;;;;;12.10;64.62;99302.38;4471728;31;34305;-84
2024/03/02 05:06:42;;;;;;;9.23;4.47;;;;;;;12.05;64.56;99289.41;4478485;31;33621;-84
2024/03/02 05:09:10;;;;;;;6.62;3.87;;;;;;;12.09;64.24;99296.25;4480431;31;31655;-83
2024/03/02 05:14:06;;;;;;;2.92;2.72;;;;;;;12.16;64.94;99286.19;4476082;31;33044;-83
2024/03/02 05:16:38;;;;;;;1.60;1.50;;;;;;;12.11;64.97;99288.25;4476171;31;34768;-84
2024/03/02 05:19:06;;;;;;;;;;;;;;;12.28;64.54;99296.03;4479201;31;32790;-84
2024/03/02 05:21:34;;;;;;;2.92;1.33;;;;;;;12.29;64.31;99295.94;4467669;31;32892;-84
2024/03/02 05:24:02;;;;;;;12.20;2.37;;;;;;;12.42;64.05;99290.78;4478610;31;34115;-84
2024/03/02 05:26:30;;;;;;;1.60;1.50;;;;;;;12.51;63.37;99287.56;4478160;31;33216;-84
2024/03/02 05:28:57;;;;;;;1.90;1.80;;;;;;;12.37;64.08;99284.91;4479021;31;33989;-83
2024/03/02 05:31:25;;;;;;;6.90;2.92;;;;;;;12.59;63.20;99294.22;4488073;31;36474;-83
2024/03/02 05:33:53;;;;;;;2.10;1.95;;;;;;;12.51;63.50;99287.56;4487893;31;34020;-83
2024/03/02 05:36:25;;;;;;;2.35;2.10;;;;;;;12.43;64.15;99289.81;4479502;31;32721;-83
2024/03/02 05:38:55;;;;;;;6.22;3.30;;;;;;;12.33;64.59;99293.97;4490182;31;32658;-83
2024/03/02 05:41:23;;;;;;;1.98;1.77;;;;;;;12.40;64.28;99289.16;4477111;31;32470;-83
2024/03/02 05:43:50;;;;;;;2.65;2.03;;;;;;;12.30;64.64;99299.44;4473842;31;33421;-83
2024/03/02 05:46:18;;;;;;;2.50;2.30;;;;;;;12.33;65.13;99291.31;4477258;31;33796;-84
2024/03/02 05:48:46;;;;;;;4.10;3.72;;;;;;;12.33;64.94;99287.81;4476917;31;33129;-84
2024/03/02 05:51:13;;;;;;;3.22;2.65;;;;;;;12.39;64.67;99284.78;4476594;31;32791;-83
2024/03/02 05:53:42;;;;;;;2.60;2.40;;;;;;;12.25;65.51;99293.59;4462923;31;33071;-83
2024/03/02 05:56:11;;;;;;;1.42;1.33;;;;;;;12.39;65.01;99288.31;4474863;31;33858;-82
2024/03/02 06:01:30;;;;;;;2.78;2.58;;;;;;;12.50;64.55;99303.56;4488522;31;33894;-83
2024/03/02 06:03:58;;;;;;;2.53;2.15;;;;;;;12.48;64.37;99306.28;4479177;31;33831;-82
2024/03/02 06:06:26;;;;;;;1.77;1.45;;;;;;;12.34;65.58;99315.97;4476409;31;34215;-83
2024/03/02 06:08:54;;;;;;;1.95;1.52;;;;;;;12.39;64.83;99320.09;4474911;31;33163;-83
2024/03/02 06:11:22;;;;;;;2.80;2.47;;;;;;;12.53;64.35;99317.47;4462350;31;34240;-83
2024/03/02 06:13:49;;;;;;;3.00;2.25;;;;;;;12.20;66.14;99325.59;4493698;31;34697;-83
2024/03/02 06:16:17;;;;;;;0.88;0.88;;;;;;;12.24;65.77;99331.56;4477654;31;33183;-82
2024/03/02 06:18:45;;;;;;;4.85;3.00;;;;;;;12.46;64.75;99329.38;4478334;31;32775;-83
2024/03/02 06:21:12;;;;;;;8.70;2.70;;;;;;;12.52;64.67;99331.66;4475135;31;34531;-83
2024/03/02 06:23:40;;;;;;;2.58;2.37;;;;;;;12.66;64.26;99328.19;4476127;31;32749;-83
2024/03/02 06:26:08;;;;;;;4.85;3.28;;;;;;;12.31;65.24;99327.63;4461834;31;34635;-83
2024/03/02 06:28:36;;;;;;;4.97;3.22;;;;;;;12.40;65.18;99337.69;4475557;31;33045;-85
2024/03/02 06:31:03;;;;;;;6.65;2.87;;;;;;;12.47;64.97;99332.88;4489022;31;33663;-83
2024/03/02 06:33:31;;;;;;;2.03;1.50;;;;;;;12.40;65.31;99328.88;4468864;31;31908;-84
2024/03/02 06:35:59;;;;;;;1.87;1.77;;;;;;;12.20;66.03;99335.31;4464929;31;33780;-85
2024/03/02 06:38:27;;;;;;;3.25;2.92;;;;;;;12.27;65.90;99336.69;4486365;31;33411;-84
2024/03/02 06:40:57;;;;;;;1.30;1.30;;;;;;;12.12;66.90;99337.56;4473254;31;34022;-85
2024/03/02 06:43:25;;;;;;;2.05;1.95;;;;;;;12.04;67.23;99335.34;4486755;31;34716;-84
2024/03/02 06:45:53;;;;;;;2.33;2.10;;;;;;;12.28;66.60;99335.72;4487440;31;33955;-84
2024/03/02 06:48:21;;;;;;;1.42;1.20;;;;;;;12.24;66.74;99334.19;4474250;31;34153;-85
2024/03/02 06:50:49;;;;;;;3.22;3.03;;;;;;;12.47;66.16;99333.72;4484223;31;33610;-84
2024/03/02 06:53:17;;;;;;;4.57;3.28;;;;;;;12.32;66.02;99334.62;4475819;31;33557;-83
2024/03/02 06:55:46;;;;;;;3.37;3.12;;;;;;;12.42;65.95;99334.94;4477705;31;33544;-84
2024/03/02 06:58:15;;;;;;;3.22;2.37;;;;;;;12.44;65.97;99339.22;4473490;32;34178;-84
2024/03/02 07:00:44;;;;;;;2.72;2.50;;;;;;;12.32;67.05;99334.62;4476019;31;33777;-84
2024/03/02 07:03:12;;;;;;;1.67;1.58;;;;;;;12.27;67.10;99340.19;4477590;31;33954;-83
2024/03/02 07:05:40;;;;;;;18.70;3.45;;;;;;;12.63;66.00;99333.69;4464762;31;33250;-84
2024/03/02 07:08:07;;;;;;;3.10;2.80;;;;;;;12.55;66.03;99336.78;4466542;31;32558;-84
2024/03/02 07:10:35;;;;;;;7.30;3.62;;;;;;;12.53;66.56;99340.44;4486994;31;32638;-84
2024/03/02 07:13:03;;;;;;;0.90;0.90;;;;;;;12.70;65.62;99334.16;4487326;31;33568;-85
2024/03/02 07:15:50;;;;;;;3.75;2.95;;;;;;;12.30;66.57;99339.16;4489370;31;36510;-85
2024/03/02 07:18:18;;;;;;;5.80;3.08;;;;;;;12.57;65.90;99342.81;4479073;31;33946;-84
2024/03/02 07:20:45;;;;;;;2.97;2.65;;;;;;;12.70;65.70;99332.34;4466276;31;30949;-85
2024/03/02 07:23:13;;;;;;;2.20;1.77;;;;;;;12.86;65.09;99334.91;4479776;31;33952;-84
2024/03/02 07:25:41;;;;;;;4.32;2.97;;;;;;;12.65;65.58;99336.22;4488056;31;31858;-84
2024/03/02 07:28:12;;;;;;;9.57;2.50;;;;;;;12.19;67.48;99352.16;4488506;31;31855;-82
2024/03/02 07:30:39;;;;;;;3.40;3.10;;;;;;;12.18;67.82;99339.84;4487781;31;34554;-82
2024/03/02 07:33:07;;;;;;;4.03;3.30;;;;;;;12.66;66.25;99349.38;4478088;31;33904;-82
2024/03/02 07:35:35;;;;;;;5.95;2.33;;;;;;;12.03;68.09;99350.38;4490582;31;33518;-82
2024/03/02 07:38:03;;;;;;;4.53;2.65;;;;;;;12.25;67.97;99347.38;4488130;31;30595;-82
2024/03/02 07:40:31;;;;;;;6.25;2.67;;;;;;;12.51;67.14;99351.13;4493061;31;33942;-83
2024/03/02 07:42:59;;;;;;;6.30;4.37;;;;;;;12.39;66.75;99349.22;4489462;31;32124;-82
2024/03/02 07:45:27;;;;;;;2.15;2.00;;;;;;;12.45;67.58;99350.66;4479232;31;33994;-82
2024/03/02 07:47:55;;;;;;;3.15;2.42;;;;;;;12.47;66.97;99354.03;4477017;31;33315;-81
2024/03/02 07:50:23;;;;;;;1.92;1.75;;;;;;;11.92;69.13;99362.53;4492394;31;33260;-81
2024/03/02 07:52:51;;;;;;;2.97;2.12;;;;;;;11.98;68.90;99362.16;4473106;31;33502;-81
2024/03/02 07:55:18;;;;;;;3.67;2.87;;;;;;;12.30;68.06;99355.91;4488270;31;33429;-82
2024/03/02 07:57:46;;;;;;;3.17;2.90;;;;;;;12.35;67.88;99366.22;4465738;31;31711;-81
2024/03/02 08:00:14;;;;;;;5.18;2.42;;;;;;;11.90;69.81;99367.03;4488053;31;32739;-81
2024/03/02 08:02:42;;;;;;;5.20;3.80;;;;;;;12.24;68.38;99369.47;4464566;31;32518;-81
2024/03/02 08:05:10;;;;;;;11.85;2.45;;;;;;;12.39;67.89;99367.75;4488713;31;33480;-82
2024/03/02 08:07:37;;;;;;;3.65;2.28;;;;;;;12.18;68.58;99368.97;4486786;31;31480;-82
2024/03/02 08:10:05;;;;;;;1.45;1.35;;;;;;;12.16;68.69;99370.88;4487406;31;33206;-82
2024/03/02 08:12:33;;;;;;;3.35;1.98;;;;;;;12.04;69.36;99377.69;4487823;31;33526;-82
2024/03/02 08:15:01;;;;;;;8.60;3.72;;;;;;;11.95;69.66;99376.41;4478347;31;33937;-82
2024/03/02 08:17:30;;;;;;;3.80;2.10;;;;;;;11.87;70.12;99383.94;4475933;31;32794;-82
2024/03/02 08:20:00;;;;;;;5.18;3.87;;;;;;;11.93;70.11;99378.31;4476767;31;34495;-81
2024/03/02 08:22:28;;;;;;;2.15;2.05;;;;;;;11.70;70.64;99384.81;4489141;31;33900;-81
2024/03/02 08:24:56;;;;;;;2.65;2.12;;;;;;;11.87;70.67;99376.00;4474957;31;33784;-82
2024/03/02 08:27:24;;;;;;;4.00;2.80;;;;;;;12.04;69.95;99378.53;4466847;31;33788;-82
2024/03/02 08:29:51;;;;;;;4.93;4.07;;;;;;;11.80;70.45;99380.72;4487947;31;33325;-82
2024/03/02 08:32:19;;;;;;;2.58;2.37;;;;;;;11.52;71.80;99373.47;4489524;31;34695;-82
2024/03/02 08:34:47;;;;;;;7.72;3.50;;;;;;;11.96;70.26;99374.63;4489190;31;32989;-82
2024/03/02 08:37:15;;;;;;;1.37;0.77;;;;;;;11.90;70.50;99378.47;4490629;31;33784;-82
2024/03/02 08:39:45;;;;;;;1.80;1.62;;;;;;;11.68;71.59;99381.44;4473854;31;33691;-82
2024/03/02 08:42:12;;;;;;;4.25;2.75;;;;;;;11.72;71.35;99374.16;4475234;31;35196;-82
2024/03/02 08:44:40;;;;;;;2.28;2.15;;;;;;;12.01;70.89;99378.72;4461641;31;33251;-82
2024/03/02 08:47:08;;;;;;;5.12;2.37;;;;;;;11.80;71.15;99374.59;4473928;31;32654;-82
2024/03/02 08:49:35;;;;;;;1.42;1.40;;;;;;;11.85;71.88;99374.38;4475099;31;32306;-82
2024/03/02 08:52:03;;;;;;;3.53;2.95;;;;;;;12.00;71.39;99382.28;4489273;31;33023;-82
2024/03/02 08:54:33;;;;;;;6.43;5.32;;;;;;;12.43;69.81;99374.53;4476557;31;33822;-82
2024/03/02 08:57:01;;;;;;;3.67;3.45;;;;;;;12.30;69.75;99378.88;4474589;31;34147;-82
2024/03/02 08:59:29;;;;;;;4.97;2.40;;;;;;;11.98;70.14;99378.91;4490376;31;33277;-83
2024/03/02 09:01:57;;;;;;;2.60;2.20;;;;;;;12.25;69.37;99380.94;4475442;31;32132;-83
2024/03/02 09:04:25;;;;;;;3.70;2.85;;;;;;;12.00;70.08;99382.28;4472536;31;32734;-83
2024/03/02 09:06:55;;;;;;;1.73;1.62;;;;;;;12.08;70.29;99381.88;4477921;31;33122;-82
2024/03/02 09:09:23;;;;;;;5.45;2.10;;;;;;;11.68;71.54;99386.72;4488413;31;33400;-82
2024/03/02 09:11:50;;;;;;;3.12;2.58;;;;;;;12.01;70.47;99384.03;4467033;31;32405;-82
2024/03/02 09:14:19;;;;;;;2.78;2.60;;;;;;;12.01;70.61;99385.78;4489852;31;33175;-82
2024/03/02 09:16:47;;;;;;;1.08;1.08;;;;;;;12.26;70.00;99380.84;4476144;31;34153;-82
2024/03/02 09:19:16;;;;;;;4.28;1.73;;;;;;;12.05;70.01;99380.25;4475932;31;33509;-82
2024/03/02 09:21:44;;;;;;;1.33;1.25;;;;;;;12.18;69.71;99384.84;4490112;31;33381;-84
2024/03/02 09:24:12;;;;;;;3.05;2.75;;;;;;;12.23;69.54;99382.78;4474997;31;31723;-82
2024/03/02 09:26:44;;;;;;;4.43;1.83;;;;;;;12.09;70.13;99388.00;4478255;31;33261;-82
2024/03/02 09:29:12;;;;;;;2.83;1.90;;;;;;;12.06;70.09;99383.78;4478383;31;33743;-82
2024/03/02 09:31:41;;;;;;;3.85;2.08;;;;;;;12.13;70.16;99384.25;4462241;31;33878;-82
2024/03/02 09:34:09;;;;;;;2.17;1.87;;;;;;;12.29;69.12;99387.72;4475639;31;33912;-83
2024/03/02 09:36:37;;;;;;;1.50;1.40;;;;;;;12.34;68.40;99380.38;4487951;31;32339;-82
2024/03/02 09:39:09;;;;;;;3.62;2.15;;;;;;;12.22;69.78;99389.03;4475162;31;33510;-82
2024/03/02 09:41:38;;;;;;;2.25;1.42;;;;;;;12.28;68.98;99389.53;4462569;31;34529;-82
2024/03/02 09:44:06;;;;;;;7.97;4.03;;;;;;;12.13;69.48;99389.56;4473551;31;32529;-82
2024/03/02 09:46:35;;;;;;;1.58;1.02;;;;;;;11.96;70.90;99396.66;4478035;31;33440;-82
2024/03/02 09:49:03;;;;;;;3.42;3.12;;;;;;;12.09;70.10;99393.31;4478230;31;32032;-82
2024/03/02 09:51:31;;;;;;;8.27;3.40;;;;;;;12.09;69.35;99390.66;4476732;31;33519;-82
2024/03/02 09:54:00;;;;;;;1.50;0.80;;;;;;;12.08;69.48;99389.81;4490027;31;33856;-82
2024/03/02 09:56:44;;;;;;;1.27;1.25;;;;;;;11.96;70.50;99387.84;4477693;31;32260;-82
2024/03/02 09:59:16;;;;;;;2.67;2.45;;;;;;;11.69;71.31;99387.56;4476319;31;33544;-82
2024/03/02 10:02:00;;;;;;;1.48;1.45;;;;;;;11.86;70.71;99390.16;4486207;31;33923;-82
2024/03/02 10:04:30;;;;;;;1.58;1.45;;;;;;;11.92;70.52;99389.84;4478638;31;33680;-82
2024/03/02 10:07:11;;;;;;;2.15;1.95;;;;;;;12.00;70.19;99386.75;4490571;31;33343;-82
2024/03/02 10:09:39;;;;;;;1.15;1.05;;;;;;;12.22;69.47;99387.25;4464673;31;33314;-82
2024/03/02 10:12:09;;;;;;;3.80;2.50;;;;;;;12.31;69.12;99377.94;4478489;31;34386;-82
2024/03/02 10:14:37;;;;;;;2.80;2.47;;;;;;;12.07;70.17;99388.12;4476732;31;33659;-82
2024/03/02 10:17:07;;;;;;;0.68;0.68;;;;;;;12.03;70.59;99381.28;4466400;31;32795;-82
2024/03/02 10:19:36;;;;;;;0.57;0.57;;;;;;;12.25;69.91;99375.63;4488813;31;33490;-82
2024/03/02 10:22:06;;;;;;;4.78;3.10;;;;;;;11.91;70.55;99381.97;4478404;31;34357;-82
2024/03/02 10:24:46;;;;;;;0.55;0.55;;;;;;;11.97;70.52;99384.28;4465158;31;32200;-82
2024/03/02 10:27:18;;;;;;;2.47;1.60;;;;;;;12.26;70.19;99378.19;4476854;31;33182;-83
2024/03/02 10:29:46;;;;;;;1.17;1.15;;;;;;;12.30;69.77;99374.44;4477425;31;32805;-82
2024/03/02 10:32:15;;;;;;;7.18;2.15;;;;;;;12.51;69.11;99382.91;4479128;31;33209;-82
2024/03/02 10:34:44;;;;;;;1.48;1.37;;;;;;;12.40;68.82;99374.75;4472169;31;33225;-82
2024/03/02 10:37:12;;;;;;;2.45;1.90;;;;;;;12.63;68.33;99378.72;4491692;31;33089;-82
2024/03/02 10:39:40;;;;;;;1.27;0.77;;;;;;;12.21;69.75;99382.03;4472573;31;33973;-82
2024/03/02 10:42:09;;;;;;;2.40;2.20;;;;;;;12.26;70.02;99377.34;4493635;31;34003;-82
2024/03/02 10:44:37;;;;;;;1.65;1.55;;;;;;;12.41;69.39;99372.94;4492267;31;32863;-82
2024/03/02 10:47:05;;;;;;;1.30;0.62;;;;;;;12.48;68.88;99372.47;4467508;31;32265;-83
2024/03/02 10:49:33;;;;;;;8.10;1.35;;;;;;;12.46;69.53;99366.44;4480578;31;34481;-82
2024/03/02 10:52:01;;;;;;;4.30;1.10;;;;;;;12.60;69.31;99370.06;4492475;31;33932;-82
2024/03/02 10:54:35;;;;;;;2.20;2.03;;;;;;;12.39;69.50;99373.03;4489504;31;34540;-82
2024/03/02 10:57:09;;;;;;;3.37;2.90;;;;;;;12.18;70.01;99371.62;4468040;31;33597;-82
2024/03/02 10:59:39;;;;;;;0.52;0.52;;;;;;;12.39;69.43;99367.75;4478861;31;33806;-82
2024/03/02 11:02:11;;;;;;;1.35;1.30;;;;;;;12.67;68.32;99366.97;4489784;31;34838;-82
2024/03/02 11:04:39;;;;;;;0.65;0.65;;;;;;;12.13;69.54;99369.22;4492730;31;34064;-82
2024/03/02 11:07:10;;;;;;;1.15;1.15;;;;;;;11.89;71.65;99384.69;4465639;31;33833;-82
2024/03/02 11:09:42;;;;;;;2.37;2.05;;;;;;;12.50;69.69;99365.31;4489978;31;32831;-82
2024/03/02 11:12:19;;;;;;;2.28;2.05;;;;;;;12.85;67.86;99359.72;4490613;31;34425;-82
2024/03/02 11:15:05;;;;;;;1.52;0.98;;;;;;;12.53;69.42;99364.28;4488893;31;32032;-84
2024/03/02 11:17:32;;;;;;;2.55;2.35;;;;;;;12.41;69.30;99363.22;4477861;31;33778;-84
2024/03/02 11:20:00;;;;;;;1.40;1.30;;;;;;;12.33;69.72;99362.78;4477287;31;34520;-84
2024/03/02 11:22:29;;;;;;;1.92;1.00;;;;;;;12.28;70.53;99364.84;4467748;31;31303;-84
2024/03/02 11:24:57;;;;;;;3.35;0.73;;;;;;;12.09;71.30;99361.56;4477211;31;34498;-84
2024/03/02 11:27:46;;;;;;;3.08;2.53;;;;;;;12.57;68.94;99350.75;4490066;31;34258;-83
2024/03/02 11:30:33;;;;;;;1.10;1.08;;;;;;;12.67;68.03;99350.22;4490185;31;32827;-84
2024/03/02 11:33:10;;;;;;;0.90;0.90;;;;;;;12.47;68.91;99354.91;4477900;31;32727;-84
2024/03/02 11:35:48;;;;;;;3.17;2.65;;;;;;;12.60;69.00;99348.91;4476294;31;32069;-84
2024/03/02 11:38:18;;;;;;;0.90;0.90;;;;;;;12.55;68.77;99355.31;4465820;31;33616;-84
2024/03/02 11:40:46;;;;;;;2.20;1.65;;;;;;;12.42;70.22;99349.03;4475345;31;33814;-84
2024/03/02 11:43:15;;;;;;;1.55;1.45;;;;;;;12.71;68.97;99347.28;4464053;31;33821;-84
2024/03/02 11:45:43;;;;;;;1.80;1.45;;;;;;;12.77;69.35;99346.06;4474130;31;32483;-84
2024/03/02 11:48:19;;;;;;;0.95;0.88;;;;;;;12.77;68.17;99335.47;4487162;31;126802;-84